KIAD/IAD METAR and TAF weather

Enter ICAO airport designator
Station Type Date Time Source
KIAD METAR 2024/07/24 10:52 UTC NOAA

KIAD 241052Z 00000KT 10SM BKN009 OVC100 23/22 A3010 RMK AO2 SLP188 T02330222


Station Type Date Time Source
KIAD Decoded METAR 2024/07/24 10:52 UTC NOAA

DULLES INTERNATIONAL AIRPORT, VA, United States (KIAD) 38-56N 077-27W 93M
Jul 24, 2024 - 06:52 AM EDT / 2024.07.24 1052 UTC
Wind: Calm:0
Visibility: 10 mile(s):0
Sky conditions: overcast
Temperature: 73.9 F (23.3 C)
Dew Point: 72.0 F (22.2 C)
Relative Humidity: 93%
Pressure (altimeter): 30.1 in. Hg (1019 hPa)
ob: KIAD 241052Z 00000KT 10SM BKN009 OVC100 23/22 A3010 RMK AO2 SLP188 T02330222
cycle: 11

Station Type Date Time Source
KIAD TAF 2024/07/24 09:06 UTC NOAA